Blue Ridge, Georgia
Current Conditions -  °F | °C
As of 5:15 PM on Saturday 25 Oct 2014 (Local Time) from KDNN Reporting Station
Clear Clear  
Wind Chill: 72°   Ceiling: Unl
Heat Index: 72°   Visibility: 10mi
Dew Point: 52°   Wind: 5mph
Humidity: 50%   Direction: 340°NNW
Pressure: 30.02"   Gusts: NA
Location:  34.86°N, 84.32°W
Report Text: KDNN 252115Z AUTO 34004KT 10SM CLR 22/11 A3002 RMK AO2
Loading
Personal Weather Stations






























Interactive Weather Map New forecast layout! Learn more

10-Day Weather Forecast

Advertisements
Track Severe Weather on mobile